createdAt,value
2023-12-07T00:00:43.448Z,35.35
2023-12-07T00:06:11.908Z,39.17
2023-12-07T00:11:18.585Z,42.60
2023-12-07T00:16:24.896Z,39.20
2023-12-07T00:21:32.928Z,34.78
2023-12-07T00:26:39.832Z,32.60
2023-12-07T00:31:47.805Z,36.25
2023-12-07T00:36:55.884Z,42.25
2023-12-07T00:42:02.436Z,38.38
2023-12-07T00:47:09.041Z,45.00
2023-12-07T00:52:17.454Z,32.78
2023-12-07T00:57:23.983Z,35.28
2023-12-07T01:02:30.298Z,38.00
2023-12-07T01:07:38.192Z,37.13
2023-12-07T01:12:44.593Z,31.38
2023-12-07T01:17:51.101Z,38.65
2023-12-07T01:22:58.910Z,33.15
2023-12-07T01:28:05.242Z,39.67
2023-12-07T01:33:11.708Z,41.13
2023-12-07T01:38:20.852Z,43.45
2023-12-07T01:43:27.176Z,36.88
2023-12-07T01:48:33.962Z,36.63
2023-12-07T01:53:43.172Z,34.53
2023-12-07T01:58:50.159Z,39.33
2023-12-07T02:03:56.558Z,39.10
2023-12-07T02:09:05.408Z,34.65
2023-12-07T02:14:11.995Z,39.45
2023-12-07T02:19:46.500Z,37.15
2023-12-07T02:25:10.458Z,35.53
2023-12-07T02:30:18.940Z,34.17
2023-12-07T02:35:26.997Z,43.92
2023-12-07T02:40:34.322Z,36.43
2023-12-07T02:45:42.501Z,38.00
2023-12-07T02:50:49.069Z,34.10
2023-12-07T02:55:55.556Z,37.22
2023-12-07T03:01:03.540Z,34.33
2023-12-07T03:06:10.649Z,40.03
2023-12-07T03:11:17.354Z,34.80
2023-12-07T03:16:25.274Z,33.35
2023-12-07T03:21:31.921Z,37.10
2023-12-07T03:26:38.479Z,41.88
2023-12-07T03:31:46.248Z,31.13
2023-12-07T03:36:53.475Z,36.85
2023-12-07T03:42:00.140Z,33.97
2023-12-07T03:47:08.469Z,39.53
2023-12-07T03:52:14.980Z,35.08
2023-12-07T03:57:22.030Z,35.55
2023-12-07T04:02:34.091Z,38.75
2023-12-07T04:07:40.984Z,34.40
2023-12-07T04:12:47.670Z,36.42
2023-12-07T04:17:55.759Z,34.10
2023-12-07T04:23:02.548Z,35.55
2023-12-07T04:28:09.028Z,37.92
2023-12-07T04:33:17.087Z,37.75
2023-12-07T04:38:23.866Z,40.78
2023-12-07T04:43:30.474Z,32.03
2023-12-07T04:48:38.443Z,32.83
2023-12-07T04:53:44.881Z,34.43
2023-12-07T04:58:51.494Z,41.97
2023-12-07T05:03:59.456Z,32.80
2023-12-07T05:09:06.848Z,36.10
2023-12-07T05:14:14.001Z,34.22
2023-12-07T05:19:22.322Z,34.58
2023-12-07T05:24:29.085Z,36.60
2023-12-07T05:29:37.199Z,32.75
2023-12-07T05:34:47.268Z,30.77
2023-12-07T05:39:54.000Z,35.13
2023-12-07T05:45:01.235Z,33.53
2023-12-07T05:50:12.926Z,32.60
2023-12-07T05:55:19.750Z,29.77
2023-12-07T06:00:26.898Z,31.10
2023-12-07T06:05:34.775Z,34.40
2023-12-07T06:10:41.551Z,26.47
2023-12-07T06:15:48.465Z,38.75
2023-12-07T06:20:56.600Z,33.35
2023-12-07T06:26:03.614Z,32.47
2023-12-07T06:31:10.479Z,32.17
2023-12-07T06:36:23.913Z,31.65
2023-12-07T06:41:30.318Z,31.77
2023-12-07T06:46:36.938Z,27.52
2023-12-07T06:51:45.092Z,32.13
2023-12-07T06:56:51.669Z,36.97
2023-12-07T07:01:58.164Z,27.77
2023-12-07T07:07:06.314Z,35.75
2023-12-07T07:12:12.721Z,32.90
2023-12-07T07:17:19.155Z,32.47
2023-12-07T07:22:27.195Z,31.88
2023-12-07T07:27:33.696Z,30.50
2023-12-07T07:32:40.461Z,28.38
2023-12-07T07:37:48.621Z,27.15
2023-12-07T07:42:55.335Z,33.80
2023-12-07T07:48:01.693Z,26.08
2023-12-07T07:53:09.635Z,31.35
2023-12-07T07:58:16.115Z,26.33
2023-12-07T08:03:22.943Z,31.38
2023-12-07T08:08:30.985Z,27.30
2023-12-07T08:13:37.571Z,25.47
2023-12-07T08:18:44.208Z,31.00
2023-12-07T08:23:52.708Z,32.20
2023-12-07T08:28:59.147Z,32.35
2023-12-07T08:34:05.760Z,32.55
2023-12-07T08:39:13.948Z,33.85
2023-12-07T08:44:20.253Z,29.58
2023-12-07T08:49:27.492Z,30.58
2023-12-07T08:54:37.613Z,35.13
2023-12-07T08:59:44.350Z,34.47
2023-12-07T09:04:53.337Z,32.35
2023-12-07T09:10:01.395Z,31.13
2023-12-07T09:15:11.864Z,31.50
2023-12-07T09:20:18.857Z,35.63
2023-12-07T09:25:29.299Z,30.23
2023-12-07T09:30:36.098Z,33.33
2023-12-07T09:35:42.825Z,28.90
2023-12-07T09:40:56.164Z,32.17
2023-12-07T09:46:03.088Z,37.30
2023-12-07T09:51:11.230Z,33.47
2023-12-07T09:56:19.553Z,33.72
2023-12-07T10:01:32.803Z,38.22
2023-12-07T10:06:47.236Z,37.25
2023-12-07T10:12:06.391Z,37.72
2023-12-07T10:17:12.896Z,34.42
2023-12-07T10:22:19.677Z,33.17
2023-12-07T10:27:29.768Z,40.15
2023-12-07T10:32:39.465Z,37.10
2023-12-07T10:37:46.210Z,35.95
2023-12-07T10:42:59.833Z,33.05
2023-12-07T10:48:08.425Z,33.67
2023-12-07T10:58:30.107Z,36.70
2023-12-07T11:03:38.594Z,36.53
2023-12-07T11:08:52.449Z,30.88
2023-12-07T11:14:05.459Z,35.95
2023-12-07T11:19:49.210Z,38.58
2023-12-07T11:25:02.854Z,32.72
2023-12-07T11:30:15.484Z,30.88
2023-12-07T11:35:22.077Z,34.33
2023-12-07T11:40:28.572Z,31.77
2023-12-07T11:45:51.687Z,32.97
2023-12-07T11:51:00.482Z,33.92
2023-12-07T11:56:09.918Z,39.97
2023-12-07T12:06:27.972Z,34.70
2023-12-07T12:11:34.597Z,34.97
2023-12-07T12:16:42.797Z,32.53
2023-12-07T12:21:49.246Z,28.48
2023-12-07T12:26:55.713Z,36.45
2023-12-07T12:32:05.072Z,37.05
2023-12-07T12:37:13.835Z,35.10
2023-12-07T12:42:20.324Z,38.17
2023-12-07T12:47:28.569Z,37.22
2023-12-07T12:52:35.700Z,37.95
2023-12-07T12:57:42.727Z,32.85
2023-12-07T13:02:50.892Z,33.65
2023-12-07T13:08:08.472Z,24.67
2023-12-07T13:13:21.193Z,33.50
2023-12-07T13:18:29.186Z,40.25
2023-12-07T13:23:36.119Z,40.40
2023-12-07T13:28:42.619Z,37.13
2023-12-07T13:33:56.196Z,38.65
2023-12-07T13:39:05.096Z,39.25
2023-12-07T13:44:14.984Z,36.38
2023-12-07T13:49:32.596Z,34.88
2023-12-07T13:54:51.479Z,33.75
2023-12-07T14:00:02.682Z,40.50
2023-12-07T14:05:13.396Z,39.25
2023-12-07T14:10:20.026Z,36.40
2023-12-07T14:15:35.291Z,47.15
2023-12-07T14:21:01.985Z,43.40
2023-12-07T14:26:17.191Z,37.83
2023-12-07T14:31:23.586Z,40.20
2023-12-07T14:36:32.291Z,42.92
2023-12-07T14:41:38.960Z,43.85
2023-12-07T14:46:46.551Z,38.13
2023-12-07T14:52:00.100Z,55.45
2023-12-07T14:57:09.731Z,46.00
2023-12-07T15:02:17.460Z,39.40
2023-12-07T15:07:25.453Z,42.60
2023-12-07T15:12:32.213Z,35.10
2023-12-07T15:17:38.927Z,36.70
2023-12-07T15:22:47.580Z,36.97
2023-12-07T15:27:54.080Z,46.72
2023-12-07T15:33:00.686Z,45.58
2023-12-07T15:38:09.247Z,52.72
2023-12-07T15:43:15.686Z,49.38
2023-12-07T15:48:22.575Z,41.10
2023-12-07T15:53:31.056Z,42.60
2023-12-07T15:58:37.508Z,41.63
2023-12-07T16:03:44.084Z,43.95
2023-12-07T16:08:51.955Z,46.92
2023-12-07T16:14:02.483Z,49.13
2023-12-07T16:19:09.833Z,45.50
2023-12-07T16:24:18.225Z,45.72
2023-12-07T16:29:24.896Z,40.00
2023-12-07T16:34:32.258Z,44.45
2023-12-07T16:39:45.820Z,39.03
2023-12-07T16:44:53.782Z,45.80
2023-12-07T16:50:01.058Z,39.70
2023-12-07T16:55:11.930Z,37.55
2023-12-07T17:00:20.095Z,48.63
2023-12-07T17:05:27.011Z,44.03
2023-12-07T17:10:35.245Z,48.13
2023-12-07T17:15:42.282Z,49.35
2023-12-07T17:20:48.938Z,43.95
2023-12-07T17:25:57.047Z,53.75
2023-12-07T17:31:03.714Z,47.93
2023-12-07T17:36:11.678Z,45.13
2023-12-07T17:41:22.039Z,43.88
2023-12-07T17:46:28.713Z,53.58
2023-12-07T17:51:35.319Z,48.80
2023-12-07T17:56:44.951Z,53.88
2023-12-07T18:01:51.522Z,52.28
2023-12-07T18:06:58.389Z,53.65
2023-12-07T18:12:07.576Z,54.35
2023-12-07T18:17:15.892Z,50.83
2023-12-07T18:22:22.666Z,50.95
2023-12-07T18:27:30.971Z,55.53
2023-12-07T18:32:37.764Z,50.72
2023-12-07T18:37:44.223Z,52.00
2023-12-07T18:42:51.893Z,58.70
2023-12-07T18:47:58.577Z,46.78
2023-12-07T18:53:05.679Z,48.00
2023-12-07T18:58:13.793Z,51.45
2023-12-07T19:03:20.461Z,50.83
2023-12-07T19:08:27.082Z,53.97
2023-12-07T19:13:35.201Z,58.28
2023-12-07T19:18:42.280Z,55.10
2023-12-07T19:23:49.349Z,52.65
2023-12-07T19:28:57.480Z,55.55
2023-12-07T19:34:04.506Z,54.75
2023-12-07T19:39:14.751Z,63.20
2023-12-07T19:44:22.977Z,54.95
2023-12-07T19:49:30.224Z,56.55
2023-12-07T19:54:37.796Z,55.03
2023-12-07T19:59:47.055Z,56.85
2023-12-07T20:04:54.211Z,57.97
2023-12-07T20:10:00.980Z,51.42
2023-12-07T20:15:12.786Z,55.15
2023-12-07T20:20:24.862Z,62.60
2023-12-07T20:25:31.771Z,61.55
2023-12-07T20:30:40.333Z,51.58
2023-12-07T20:35:47.606Z,50.20
2023-12-07T20:40:54.855Z,60.67
2023-12-07T20:46:03.421Z,58.42
2023-12-07T20:51:10.033Z,80.50
2023-12-07T20:56:19.514Z,110.65
2023-12-07T21:01:27.560Z,59.40
2023-12-07T21:06:34.300Z,38.63
2023-12-07T21:11:40.933Z,51.53
2023-12-07T21:16:48.974Z,48.65
2023-12-07T21:21:55.697Z,49.77
2023-12-07T21:27:02.577Z,53.78
2023-12-07T21:32:10.894Z,66.75
2023-12-07T21:37:17.475Z,39.03
2023-12-07T21:42:24.159Z,55.50
2023-12-07T21:47:32.451Z,56.92
2023-12-07T21:52:39.620Z,47.10
2023-12-07T21:57:46.578Z,55.63
2023-12-07T22:02:54.923Z,54.45
2023-12-07T22:08:01.477Z,42.72
2023-12-07T22:13:08.142Z,43.95
2023-12-07T22:18:16.191Z,50.92
2023-12-07T22:23:23.313Z,38.90
2023-12-07T22:28:30.061Z,51.60
2023-12-07T22:33:38.302Z,41.80
2023-12-07T22:38:45.725Z,43.58
2023-12-07T22:43:52.286Z,42.60
2023-12-07T22:49:00.657Z,44.95
2023-12-07T22:54:08.557Z,42.10
2023-12-07T22:59:15.683Z,48.25
2023-12-07T23:04:24.291Z,42.95
2023-12-07T23:09:31.178Z,43.92
2023-12-07T23:14:37.660Z,40.67
2023-12-07T23:19:46.577Z,43.65
2023-12-07T23:29:59.766Z,39.90
2023-12-07T23:35:11.348Z,38.42
2023-12-07T23:40:18.486Z,38.88
2023-12-07T23:45:25.169Z,39.13
2023-12-07T23:50:33.279Z,41.10
2023-12-07T23:55:40.840Z,42.13
